Time,TemperatureF,DewpointF,PressureIn,WindDirection,WindDirectionDegrees,WindSpeedMPH,WindSpeedGustMPH,Humidity,HourlyPrecipIn,Conditions,Clouds,dailyrainin,SoftwareType,DateUTC
2013-07-06 00:14:00,65.3,65.0,30.25,SSW,203,0.0,2.0,97,0.02,,,0.00,weatherlink.com 1.10,2013-07-06 04:14:00,
2013-07-06 00:29:00,65.1,64.0,30.25,SSW,203,1.0,2.0,97,0.02,,,0.00,weatherlink.com 1.10,2013-07-06 04:29:00,
2013-07-06 00:44:00,65.2,64.0,30.25,SSW,203,0.0,1.0,97,0.02,,,0.00,weatherlink.com 1.10,2013-07-06 04:44:00,
2013-07-06 00:59:00,65.0,64.0,30.25,SSW,204,0.0,1.0,97,0.09,,,0.09,weatherlink.com 1.10,2013-07-06 04:59:00,
2013-07-06 01:14:00,65.1,64.0,30.24,SSW,204,1.0,3.0,97,0.09,,,0.09,weatherlink.com 1.10,2013-07-06 05:14:00,
2013-07-06 01:29:00,65.1,64.0,30.24,SSW,205,1.0,4.0,97,0.10,,,0.10,weatherlink.com 1.10,2013-07-06 05:29:00,
2013-07-06 01:44:00,65.3,65.0,30.23,SSW,204,0.0,3.0,97,0.10,,,0.10,weatherlink.com 1.10,2013-07-06 05:44:00,
2013-07-06 01:59:00,65.4,65.0,30.23,SSW,204,0.0,3.0,97,0.07,,,0.16,weatherlink.com 1.10,2013-07-06 05:59:00,
2013-07-06 02:14:00,65.3,65.0,30.22,SSW,204,0.0,2.0,97,0.15,,,0.24,weatherlink.com 1.10,2013-07-06 06:14:00,
2013-07-06 02:29:00,65.5,65.0,30.23,SSW,205,0.0,2.0,97,0.15,,,0.25,weatherlink.com 1.10,2013-07-06 06:29:00,
2013-07-06 02:44:00,65.6,65.0,30.22,SSW,205,0.0,4.0,97,0.16,,,0.26,weatherlink.com 1.10,2013-07-06 06:44:00,
2013-07-06 02:59:00,65.6,65.0,30.22,SSW,205,0.0,2.0,97,0.10,,,0.26,weatherlink.com 1.10,2013-07-06 06:59:00,
2013-07-06 03:14:00,65.6,65.0,30.22,SSW,205,0.0,3.0,97,0.02,,,0.26,weatherlink.com 1.10,2013-07-06 07:14:00,
2013-07-06 03:29:00,65.6,65.0,30.22,SSW,205,2.0,3.0,97,0.01,,,0.26,weatherlink.com 1.10,2013-07-06 07:29:00,
2013-07-06 03:44:00,65.5,65.0,30.22,SSW,201,1.0,5.0,97,0.08,,,0.34,weatherlink.com 1.10,2013-07-06 07:44:00,
2013-07-06 03:59:00,64.5,64.0,30.22,SSW,195,1.0,8.0,97,0.22,,,0.48,weatherlink.com 1.10,2013-07-06 07:59:00,
2013-07-06 04:14:00,63.8,63.0,30.22,South,189,1.0,7.0,97,0.22,,,0.48,weatherlink.com 1.10,2013-07-06 08:14:00,
2013-07-06 04:29:00,63.7,63.0,30.22,South,188,3.0,7.0,97,0.22,,,0.48,weatherlink.com 1.10,2013-07-06 08:29:00,
2013-07-06 04:44:00,63.9,63.0,30.22,South,188,1.0,4.0,97,0.14,,,0.48,weatherlink.com 1.10,2013-07-06 08:44:00,
2013-07-06 04:59:00,64.0,63.0,30.22,South,188,2.0,4.0,97,0.00,,,0.48,weatherlink.com 1.10,2013-07-06 08:59:00,
2013-07-06 05:14:00,64.2,63.0,30.22,South,188,0.0,1.0,97,0.00,,,0.48,weatherlink.com 1.10,2013-07-06 09:14:00,
2013-07-06 05:29:00,64.4,64.0,30.22,South,189,0.0,1.0,97,0.00,,,0.48,weatherlink.com 1.10,2013-07-06 09:29:00,
2013-07-06 05:44:00,64.6,64.0,30.22,South,188,0.0,1.0,97,0.00,,,0.48,weatherlink.com 1.10,2013-07-06 09:44:00,
2013-07-06 05:59:00,64.7,64.0,30.22,South,188,0.0,1.0,97,0.01,,,0.49,weatherlink.com 1.10,2013-07-06 09:59:00,
2013-07-06 06:14:00,64.9,64.0,30.22,South,188,0.0,1.0,97,0.01,,,0.49,weatherlink.com 1.10,2013-07-06 10:14:00,
2013-07-06 06:29:00,64.9,64.0,30.23,South,189,0.0,1.0,97,0.01,,,0.49,weatherlink.com 1.10,2013-07-06 10:29:00,
2013-07-06 06:44:00,65.0,64.0,30.23,South,188,0.0,0.0,97,0.01,,,0.49,weatherlink.com 1.10,2013-07-06 10:44:00,
2013-07-06 07:00:00,64.8,64.0,30.23,South,188,0.0,0.0,97,0.00,,,0.49,weatherlink.com 1.10,2013-07-06 11:00:00,
2013-07-06 07:14:00,65.0,64.0,30.24,South,189,0.0,0.0,97,0.00,,,0.49,weatherlink.com 1.10,2013-07-06 11:14:00,
2013-07-06 07:29:00,65.0,64.0,30.24,South,189,0.0,0.0,97,0.00,,,0.49,weatherlink.com 1.10,2013-07-06 11:29:00,
2013-07-06 07:44:00,65.3,65.0,30.24,South,188,0.0,4.0,97,0.00,,,0.49,weatherlink.com 1.10,2013-07-06 11:44:00,
2013-07-06 07:59:00,65.3,65.0,30.24,South,189,0.0,2.0,97,0.00,,,0.49,weatherlink.com 1.10,2013-07-06 11:59:00,
2013-07-06 08:14:00,65.6,65.0,30.25,South,189,1.0,3.0,97,0.00,,,0.49,weatherlink.com 1.10,2013-07-06 12:14:00,
2013-07-06 08:29:00,66.0,65.0,30.25,South,189,0.0,3.0,97,0.00,,,0.49,weatherlink.com 1.10,2013-07-06 12:29:00,
2013-07-06 08:44:00,66.9,66.0,30.25,South,188,0.0,2.0,97,0.00,,,0.49,weatherlink.com 1.10,2013-07-06 12:44:00,
2013-07-06 08:59:00,66.5,66.0,30.25,South,188,0.0,3.0,97,0.00,,,0.49,weatherlink.com 1.10,2013-07-06 12:59:00,
2013-07-06 09:14:00,66.8,66.0,30.26,South,189,0.0,2.0,97,0.00,,,0.49,weatherlink.com 1.10,2013-07-06 13:14:00,
2013-07-06 09:29:00,68.5,68.0,30.25,South,188,0.0,2.0,97,0.00,,,0.49,weatherlink.com 1.10,2013-07-06 13:29:00,
2013-07-06 09:44:00,69.4,68.0,30.25,South,189,0.0,3.0,96,0.00,,,0.49,weatherlink.com 1.10,2013-07-06 13:44:00,
2013-07-06 09:59:00,69.2,67.0,30.25,South,189,0.0,3.0,93,0.00,,,0.49,weatherlink.com 1.10,2013-07-06 13:59:00,
2013-07-06 10:14:00,72.6,70.0,30.25,South,188,0.0,3.0,92,0.00,,,0.49,weatherlink.com 1.10,2013-07-06 14:14:00,
2013-07-06 10:29:00,73.2,69.0,30.25,South,189,0.0,2.0,87,0.00,,,0.49,weatherlink.com 1.10,2013-07-06 14:29:00,
2013-07-06 10:45:00,72.4,67.0,30.25,South,188,0.0,1.0,84,0.00,,,0.49,weatherlink.com 1.10,2013-07-06 14:45:00,
2013-07-06 10:59:00,72.1,68.0,30.25,South,188,0.0,1.0,86,0.00,,,0.49,weatherlink.com 1.10,2013-07-06 14:59:00,
2013-07-06 11:14:00,71.9,68.0,30.25,South,188,0.0,1.0,87,0.00,,,0.49,weatherlink.com 1.10,2013-07-06 15:14:00,
2013-07-06 11:29:00,72.9,68.0,30.26,South,188,0.0,3.0,85,0.00,,,0.49,weatherlink.com 1.10,2013-07-06 15:29:00,
2013-07-06 11:44:00,74.4,69.0,30.25,South,188,0.0,1.0,84,0.00,,,0.49,weatherlink.com 1.10,2013-07-06 15:44:00,
2013-07-06 11:59:00,73.7,69.0,30.25,South,188,0.0,3.0,84,0.00,,,0.49,weatherlink.com 1.10,2013-07-06 15:59:00,
2013-07-06 12:15:00,73.8,68.0,30.25,South,189,0.0,2.0,82,0.00,,,0.49,weatherlink.com 1.10,2013-07-06 16:15:00,
2013-07-06 12:30:00,72.6,68.0,30.25,South,188,0.0,2.0,85,0.00,,,0.49,weatherlink.com 1.10,2013-07-06 16:30:00,
2013-07-06 13:00:00,75.3,70.0,30.25,South,189,1.0,2.0,83,0.00,,,0.49,weatherlink.com 1.10,2013-07-06 17:00:00,
2013-07-06 13:30:00,74.6,68.0,30.24,South,191,0.0,4.0,81,0.00,,,0.49,weatherlink.com 1.10,2013-07-06 17:30:00,
2013-07-06 14:00:00,74.8,69.0,30.23,South,190,0.0,2.0,82,0.00,,,0.49,weatherlink.com 1.10,2013-07-06 18:00:00,
2013-07-06 14:15:00,71.5,67.0,30.23,South,190,0.0,5.0,86,0.04,,,0.53,weatherlink.com 1.10,2013-07-06 18:15:00,
2013-07-06 15:00:00,74.3,71.0,30.22,South,190,0.0,3.0,88,0.04,,,0.53,weatherlink.com 1.10,2013-07-06 19:00:00,
2013-07-06 15:15:00,74.6,69.0,30.21,South,190,0.0,2.0,82,0.00,,,0.53,weatherlink.com 1.10,2013-07-06 19:15:00,
2013-07-06 15:30:00,75.7,70.0,30.21,South,190,0.0,1.0,83,0.00,,,0.53,weatherlink.com 1.10,2013-07-06 19:30:00,
2013-07-06 15:45:00,75.7,69.0,30.20,South,190,1.0,1.0,80,0.00,,,0.53,weatherlink.com 1.10,2013-07-06 19:45:00,
2013-07-06 16:00:00,74.1,69.0,30.20,South,190,0.0,2.0,85,0.00,,,0.53,weatherlink.com 1.10,2013-07-06 20:00:00,
2013-07-06 16:30:00,75.0,70.0,30.18,South,190,0.0,1.0,83,0.00,,,0.53,weatherlink.com 1.10,2013-07-06 20:30:00,
2013-07-06 16:45:00,73.6,70.0,30.18,South,190,0.0,0.0,87,0.00,,,0.53,weatherlink.com 1.10,2013-07-06 20:45:00,
2013-07-06 17:15:00,70.1,67.0,30.20,South,190,0.0,1.0,91,0.07,,,0.60,weatherlink.com 1.10,2013-07-06 21:15:00,
2013-07-06 17:30:00,69.9,68.0,30.20,South,190,0.0,0.0,92,0.07,,,0.60,weatherlink.com 1.10,2013-07-06 21:30:00,
2013-07-06 17:45:00,71.0,67.0,30.19,South,190,0.0,0.0,88,0.07,,,0.60,weatherlink.com 1.10,2013-07-06 21:45:00,
2013-07-06 18:00:00,71.8,68.0,30.18,South,190,0.0,1.0,87,0.04,,,0.60,weatherlink.com 1.10,2013-07-06 22:00:00,
2013-07-06 18:15:00,71.1,67.0,30.18,South,190,0.0,0.0,88,0.00,,,0.60,weatherlink.com 1.10,2013-07-06 22:15:00,
2013-07-06 18:45:00,71.2,68.0,30.18,South,190,0.0,2.0,88,0.00,,,0.60,weatherlink.com 1.10,2013-07-06 22:45:00,
2013-07-06 19:00:00,69.7,67.0,30.19,South,191,0.0,4.0,92,0.06,,,0.66,weatherlink.com 1.10,2013-07-06 23:00:00,
2013-07-06 19:15:00,67.2,65.0,30.19,South,188,0.0,1.0,92,0.26,,,0.86,weatherlink.com 1.10,2013-07-06 23:15:00,
2013-07-06 19:31:00,66.6,65.0,30.19,South,190,0.0,2.0,95,0.34,,,0.94,weatherlink.com 1.10,2013-07-06 23:31:00,
2013-07-06 20:00:00,66.6,66.0,30.20,South,190,0.0,0.0,96,0.31,,,0.97,weatherlink.com 1.10,2013-07-07 00:00:00,
2013-07-06 20:15:00,66.7,66.0,30.20,South,190,0.0,1.0,96,0.12,,,0.98,weatherlink.com 1.10,2013-07-07 00:15:00,
2013-07-06 20:45:00,66.9,66.0,30.20,South,190,0.0,1.0,96,0.04,,,0.98,weatherlink.com 1.10,2013-07-07 00:45:00,
2013-07-06 21:15:00,66.8,66.0,30.20,South,190,0.0,1.0,96,0.08,,,1.06,weatherlink.com 1.10,2013-07-07 01:15:00,
2013-07-06 21:30:00,66.7,66.0,30.20,South,190,0.0,0.0,96,0.08,,,1.06,weatherlink.com 1.10,2013-07-07 01:30:00,
2013-07-06 21:45:00,66.8,66.0,30.20,South,190,0.0,1.0,96,0.08,,,1.06,weatherlink.com 1.10,2013-07-07 01:45:00,
2013-07-06 22:00:00,66.8,66.0,30.21,South,190,0.0,1.0,97,0.05,,,1.06,weatherlink.com 1.10,2013-07-07 02:00:00,
2013-07-06 22:30:00,66.8,66.0,30.21,South,190,0.0,0.0,97,0.02,,,1.08,weatherlink.com 1.10,2013-07-07 02:30:00,
2013-07-06 23:15:00,66.5,66.0,30.21,SSW,193,0.0,4.0,97,0.07,,,1.13,weatherlink.com 1.10,2013-07-07 03:15:00,
2013-07-06 23:30:00,66.6,66.0,30.21,SSW,193,0.0,5.0,97,0.05,,,1.13,weatherlink.com 1.10,2013-07-07 03:30:00,
2013-07-06 23:45:00,66.6,66.0,30.22,SSW,195,2.0,3.0,97,0.00,,,1.13,weatherlink.com 1.10,2013-07-07 03:45:00,